sensor_id;sensor_type;location;lat;lon;timestamp;pressure;altitude;pressure_sealevel;temperature;humidity
60642;BME280;46837;52.446;-1.930;2024-01-27T00:00:09;101858.90;;;4.96;79.95
60642;BME280;46837;52.446;-1.930;2024-01-27T00:01:09;101854.41;;;5.01;79.87
60642;BME280;46837;52.446;-1.930;2024-01-27T00:02:09;101856.87;;;4.95;79.91
60642;BME280;46837;52.446;-1.930;2024-01-27T00:03:09;101854.00;;;4.90;80.30
60642;BME280;46837;52.446;-1.930;2024-01-27T00:04:09;101856.91;;;4.94;80.30
60642;BME280;46837;52.446;-1.930;2024-01-27T00:05:09;101855.23;;;4.93;80.28
60642;BME280;46837;52.446;-1.930;2024-01-27T00:06:09;101856.36;;;4.92;80.13
60642;BME280;46837;52.446;-1.930;2024-01-27T00:07:09;101857.79;;;4.90;80.29
60642;BME280;46837;52.446;-1.930;2024-01-27T00:08:09;101854.86;;;4.89;80.22
60642;BME280;46837;52.446;-1.930;2024-01-27T00:09:09;101853.91;;;4.88;80.16
60642;BME280;46837;52.446;-1.930;2024-01-27T00:10:09;101855.00;;;4.83;80.24
60642;BME280;46837;52.446;-1.930;2024-01-27T00:11:09;101855.23;;;4.82;80.34
60642;BME280;46837;52.446;-1.930;2024-01-27T00:12:09;101854.93;;;4.76;80.46
60642;BME280;46837;52.446;-1.930;2024-01-27T00:13:09;101858.00;;;4.73;80.66
60642;BME280;46837;52.446;-1.930;2024-01-27T00:14:09;101859.67;;;4.74;80.74
60642;BME280;46837;52.446;-1.930;2024-01-27T00:15:09;101859.35;;;4.67;80.80
60642;BME280;46837;52.446;-1.930;2024-01-27T00:16:09;101861.19;;;4.61;81.12
60642;BME280;46837;52.446;-1.930;2024-01-27T00:17:09;101859.00;;;4.61;81.29
60642;BME280;46837;52.446;-1.930;2024-01-27T00:18:09;101863.86;;;4.58;81.21
60642;BME280;46837;52.446;-1.930;2024-01-27T00:19:09;101864.43;;;4.58;81.32
60642;BME280;46837;52.446;-1.930;2024-01-27T00:20:09;101865.94;;;4.52;81.58
60642;BME280;46837;52.446;-1.930;2024-01-27T00:21:09;101861.33;;;4.49;81.71
60642;BME280;46837;52.446;-1.930;2024-01-27T00:22:09;101862.73;;;4.45;81.96
60642;BME280;46837;52.446;-1.930;2024-01-27T00:23:09;101863.46;;;4.46;81.87
60642;BME280;46837;52.446;-1.930;2024-01-27T00:24:09;101867.59;;;4.43;81.94
60642;BME280;46837;52.446;-1.930;2024-01-27T00:25:09;101867.48;;;4.45;81.97
60642;BME280;46837;52.446;-1.930;2024-01-27T00:26:09;101868.44;;;4.42;82.03
60642;BME280;46837;52.446;-1.930;2024-01-27T00:27:09;101865.91;;;4.40;82.09
60642;BME280;46837;52.446;-1.930;2024-01-27T00:28:09;101866.84;;;4.40;82.17
60642;BME280;46837;52.446;-1.930;2024-01-27T00:29:09;101864.82;;;4.36;82.22
60642;BME280;46837;52.446;-1.930;2024-01-27T00:30:09;101864.50;;;4.34;82.45
60642;BME280;46837;52.446;-1.930;2024-01-27T00:31:09;101861.10;;;4.30;82.66
60642;BME280;46837;52.446;-1.930;2024-01-27T00:32:09;101859.92;;;4.30;82.80
60642;BME280;46837;52.446;-1.930;2024-01-27T00:33:09;101857.52;;;4.29;82.78
60642;BME280;46837;52.446;-1.930;2024-01-27T00:34:09;101857.48;;;4.28;82.78
60642;BME280;46837;52.446;-1.930;2024-01-27T00:35:09;101854.75;;;4.26;82.95
60642;BME280;46837;52.446;-1.930;2024-01-27T00:36:09;101858.20;;;4.22;83.12
60642;BME280;46837;52.446;-1.930;2024-01-27T00:37:09;101856.87;;;4.22;83.57
60642;BME280;46837;52.446;-1.930;2024-01-27T00:38:09;101860.49;;;4.24;83.31
60642;BME280;46837;52.446;-1.930;2024-01-27T00:39:09;101859.73;;;4.24;83.27
60642;BME280;46837;52.446;-1.930;2024-01-27T00:40:09;101861.64;;;4.25;83.27
60642;BME280;46837;52.446;-1.930;2024-01-27T00:41:09;101855.74;;;4.17;83.70
60642;BME280;46837;52.446;-1.930;2024-01-27T00:42:09;101857.97;;;4.16;83.83
60642;BME280;46837;52.446;-1.930;2024-01-27T00:43:09;101853.49;;;4.13;83.99
60642;BME280;46837;52.446;-1.930;2024-01-27T00:44:09;101855.06;;;4.13;84.02
60642;BME280;46837;52.446;-1.930;2024-01-27T00:45:09;101857.91;;;4.14;83.96
60642;BME280;46837;52.446;-1.930;2024-01-27T00:46:09;101854.96;;;4.10;84.10
60642;BME280;46837;52.446;-1.930;2024-01-27T00:47:09;101855.13;;;4.11;84.12
60642;BME280;46837;52.446;-1.930;2024-01-27T00:48:09;101854.91;;;4.08;84.18
60642;BME280;46837;52.446;-1.930;2024-01-27T00:49:09;101860.36;;;4.04;84.53
60642;BME280;46837;52.446;-1.930;2024-01-27T00:50:09;101856.02;;;4.00;84.67
60642;BME280;46837;52.446;-1.930;2024-01-27T00:51:09;101850.49;;;4.04;84.64
60642;BME280;46837;52.446;-1.930;2024-01-27T00:52:09;101852.66;;;4.00;84.47
60642;BME280;46837;52.446;-1.930;2024-01-27T00:53:09;101849.77;;;4.04;84.71
60642;BME280;46837;52.446;-1.930;2024-01-27T00:54:09;101846.04;;;4.04;84.41
60642;BME280;46837;52.446;-1.930;2024-01-27T00:55:09;101844.11;;;4.08;84.28
60642;BME280;46837;52.446;-1.930;2024-01-27T00:56:09;101837.80;;;4.10;84.13
60642;BME280;46837;52.446;-1.930;2024-01-27T00:57:09;101837.47;;;4.10;84.00
60642;BME280;46837;52.446;-1.930;2024-01-27T00:58:09;101837.13;;;4.06;84.19
60642;BME280;46837;52.446;-1.930;2024-01-27T00:59:09;101833.53;;;4.03;84.31
60642;BME280;46837;52.446;-1.930;2024-01-27T01:00:09;101829.15;;;4.03;84.43
60642;BME280;46837;52.446;-1.930;2024-01-27T01:01:09;101829.72;;;4.04;84.45
60642;BME280;46837;52.446;-1.930;2024-01-27T01:02:09;101823.93;;;4.04;84.35
60642;BME280;46837;52.446;-1.930;2024-01-27T01:03:09;101826.77;;;4.05;84.30
60642;BME280;46837;52.446;-1.930;2024-01-27T01:04:09;101825.31;;;4.05;84.25
60642;BME280;46837;52.446;-1.930;2024-01-27T01:05:09;101826.64;;;4.04;84.27
60642;BME280;46837;52.446;-1.930;2024-01-27T01:06:09;101828.33;;;4.02;84.17
60642;BME280;46837;52.446;-1.930;2024-01-27T01:07:09;101831.32;;;4.05;84.23
60642;BME280;46837;52.446;-1.930;2024-01-27T01:08:09;101834.27;;;4.03;84.09
60642;BME280;46837;52.446;-1.930;2024-01-27T01:09:09;101835.34;;;4.01;84.27
60642;BME280;46837;52.446;-1.930;2024-01-27T01:10:09;101839.14;;;3.98;84.40
60642;BME280;46837;52.446;-1.930;2024-01-27T01:11:09;101838.43;;;3.90;84.79
60642;BME280;46837;52.446;-1.930;2024-01-27T01:12:09;101839.95;;;3.93;85.02
60642;BME280;46837;52.446;-1.930;2024-01-27T01:13:09;101841.30;;;3.95;84.86
60642;BME280;46837;52.446;-1.930;2024-01-27T01:14:09;101842.00;;;3.95;84.81
60642;BME280;46837;52.446;-1.930;2024-01-27T01:15:09;101845.02;;;3.98;84.89
60642;BME280;46837;52.446;-1.930;2024-01-27T01:16:09;101842.34;;;3.98;84.78
60642;BME280;46837;52.446;-1.930;2024-01-27T01:17:09;101845.64;;;4.00;84.84
60642;BME280;46837;52.446;-1.930;2024-01-27T01:18:09;101842.86;;;3.98;84.93
60642;BME280;46837;52.446;-1.930;2024-01-27T01:19:09;101839.20;;;4.02;84.97
60642;BME280;46837;52.446;-1.930;2024-01-27T01:20:09;101840.43;;;4.02;84.84
60642;BME280;46837;52.446;-1.930;2024-01-27T01:21:09;101838.80;;;4.07;84.91
60642;BME280;46837;52.446;-1.930;2024-01-27T01:22:09;101837.31;;;4.10;84.76
60642;BME280;46837;52.446;-1.930;2024-01-27T01:23:09;101835.41;;;4.12;84.61
60642;BME280;46837;52.446;-1.930;2024-01-27T01:24:09;101831.34;;;4.14;84.51
60642;BME280;46837;52.446;-1.930;2024-01-27T01:25:09;101834.88;;;4.16;84.57
60642;BME280;46837;52.446;-1.930;2024-01-27T01:26:09;101831.47;;;4.16;84.45
60642;BME280;46837;52.446;-1.930;2024-01-27T01:27:09;101830.03;;;4.20;84.31
60642;BME280;46837;52.446;-1.930;2024-01-27T01:28:09;101826.20;;;4.18;84.25
60642;BME280;46837;52.446;-1.930;2024-01-27T01:29:09;101832.57;;;4.18;84.21
60642;BME280;46837;52.446;-1.930;2024-01-27T01:30:09;101829.67;;;4.20;84.25
60642;BME280;46837;52.446;-1.930;2024-01-27T01:31:09;101830.62;;;4.18;84.08
60642;BME280;46837;52.446;-1.930;2024-01-27T01:32:09;101829.09;;;4.18;84.09
60642;BME280;46837;52.446;-1.930;2024-01-27T01:33:09;101828.62;;;4.16;84.04
60642;BME280;46837;52.446;-1.930;2024-01-27T01:34:09;101828.41;;;4.14;84.08
60642;BME280;46837;52.446;-1.930;2024-01-27T01:35:11;101825.96;;;4.12;84.12
60642;BME280;46837;52.446;-1.930;2024-01-27T01:36:09;101822.35;;;4.12;84.25
60642;BME280;46837;52.446;-1.930;2024-01-27T01:37:09;101822.34;;;4.11;84.16
60642;BME280;46837;52.446;-1.930;2024-01-27T01:38:09;101825.12;;;4.08;84.24
60642;BME280;46837;52.446;-1.930;2024-01-27T01:39:09;101822.93;;;4.08;84.33
60642;BME280;46837;52.446;-1.930;2024-01-27T01:40:09;101826.87;;;4.08;84.30
60642;BME280;46837;52.446;-1.930;2024-01-27T01:41:09;101826.06;;;4.02;84.43
60642;BME280;46837;52.446;-1.930;2024-01-27T01:42:09;101826.71;;;3.97;84.69
60642;BME280;46837;52.446;-1.930;2024-01-27T01:43:11;101827.44;;;3.95;84.82
60642;BME280;46837;52.446;-1.930;2024-01-27T01:44:09;101831.63;;;3.98;84.92
60642;BME280;46837;52.446;-1.930;2024-01-27T01:45:10;101830.42;;;3.99;84.73
60642;BME280;46837;52.446;-1.930;2024-01-27T01:46:09;101829.50;;;4.01;84.63
60642;BME280;46837;52.446;-1.930;2024-01-27T01:47:09;101832.16;;;3.98;84.60
60642;BME280;46837;52.446;-1.930;2024-01-27T01:48:09;101835.48;;;3.97;84.67
60642;BME280;46837;52.446;-1.930;2024-01-27T01:49:09;101837.92;;;3.98;84.63
60642;BME280;46837;52.446;-1.930;2024-01-27T01:50:09;101833.16;;;3.96;84.66
60642;BME280;46837;52.446;-1.930;2024-01-27T01:51:09;101824.04;;;3.97;84.70
60642;BME280;46837;52.446;-1.930;2024-01-27T01:52:09;101823.45;;;3.88;85.02
60642;BME280;46837;52.446;-1.930;2024-01-27T01:53:09;101824.33;;;3.92;85.13
60642;BME280;46837;52.446;-1.930;2024-01-27T01:54:09;101821.89;;;3.91;85.04
60642;BME280;46837;52.446;-1.930;2024-01-27T01:55:09;101822.76;;;3.88;85.03
60642;BME280;46837;52.446;-1.930;2024-01-27T01:56:09;101823.00;;;3.88;85.18
60642;BME280;46837;52.446;-1.930;2024-01-27T01:57:09;101824.45;;;3.87;85.11
60642;BME280;46837;52.446;-1.930;2024-01-27T01:58:09;101821.80;;;3.85;85.14
60642;BME280;46837;52.446;-1.930;2024-01-27T01:59:09;101818.66;;;3.82;85.41
60642;BME280;46837;52.446;-1.930;2024-01-27T02:00:09;101821.33;;;3.81;85.53
60642;BME280;46837;52.446;-1.930;2024-01-27T02:01:09;101825.19;;;3.83;85.55
60642;BME280;46837;52.446;-1.930;2024-01-27T02:02:10;101819.30;;;3.87;85.44
60642;BME280;46837;52.446;-1.930;2024-01-27T02:03:11;101820.50;;;3.85;85.23
60642;BME280;46837;52.446;-1.930;2024-01-27T02:04:09;101819.19;;;3.82;85.30
60642;BME280;46837;52.446;-1.930;2024-01-27T02:05:09;101822.12;;;3.84;85.33
60642;BME280;46837;52.446;-1.930;2024-01-27T02:06:09;101826.96;;;3.86;85.20
60642;BME280;46837;52.446;-1.930;2024-01-27T02:07:09;101824.36;;;3.86;85.14
60642;BME280;46837;52.446;-1.930;2024-01-27T02:08:09;101829.46;;;3.85;85.17
60642;BME280;46837;52.446;-1.930;2024-01-27T02:09:09;101825.93;;;3.83;85.22
60642;BME280;46837;52.446;-1.930;2024-01-27T02:10:14;101828.37;;;3.84;85.22
60642;BME280;46837;52.446;-1.930;2024-01-27T02:11:09;101826.95;;;3.84;85.17
60642;BME280;46837;52.446;-1.930;2024-01-27T02:12:09;101832.34;;;3.79;85.18
60642;BME280;46837;52.446;-1.930;2024-01-27T02:14:09;101824.09;;;3.82;85.23
60642;BME280;46837;52.446;-1.930;2024-01-27T02:15:10;101819.17;;;3.80;85.29
60642;BME280;46837;52.446;-1.930;2024-01-27T02:16:09;101820.96;;;3.81;85.41
60642;BME280;46837;52.446;-1.930;2024-01-27T02:17:09;101823.24;;;3.81;85.32
60642;BME280;46837;52.446;-1.930;2024-01-27T02:18:09;101824.25;;;3.81;85.21
60642;BME280;46837;52.446;-1.930;2024-01-27T02:19:09;101824.28;;;3.80;85.22
60642;BME280;46837;52.446;-1.930;2024-01-27T02:20:09;101829.09;;;3.84;85.29
60642;BME280;46837;52.446;-1.930;2024-01-27T02:21:09;101827.23;;;3.84;85.12
60642;BME280;46837;52.446;-1.930;2024-01-27T02:22:09;101828.30;;;3.81;85.09
60642;BME280;46837;52.446;-1.930;2024-01-27T02:23:09;101823.61;;;3.78;85.39
60642;BME280;46837;52.446;-1.930;2024-01-27T02:24:09;101825.35;;;3.77;85.51
60642;BME280;46837;52.446;-1.930;2024-01-27T02:25:09;101824.21;;;3.77;85.58
60642;BME280;46837;52.446;-1.930;2024-01-27T02:26:09;101819.84;;;3.78;85.54
60642;BME280;46837;52.446;-1.930;2024-01-27T02:27:09;101825.08;;;3.79;85.53
60642;BME280;46837;52.446;-1.930;2024-01-27T02:28:09;101826.31;;;3.80;85.43
60642;BME280;46837;52.446;-1.930;2024-01-27T02:29:09;101829.91;;;3.80;85.24
60642;BME280;46837;52.446;-1.930;2024-01-27T02:30:09;101830.61;;;3.81;85.27
60642;BME280;46837;52.446;-1.930;2024-01-27T02:31:09;101825.84;;;3.82;85.23
60642;BME280;46837;52.446;-1.930;2024-01-27T02:32:09;101825.12;;;3.80;85.32
60642;BME280;46837;52.446;-1.930;2024-01-27T02:33:09;101827.29;;;3.81;85.31
60642;BME280;46837;52.446;-1.930;2024-01-27T02:34:09;101825.96;;;3.83;85.37
60642;BME280;46837;52.446;-1.930;2024-01-27T02:35:09;101827.62;;;3.82;85.27
60642;BME280;46837;52.446;-1.930;2024-01-27T02:36:09;101826.69;;;3.82;85.29
60642;BME280;46837;52.446;-1.930;2024-01-27T02:37:09;101829.37;;;3.83;85.26
60642;BME280;46837;52.446;-1.930;2024-01-27T02:38:09;101827.87;;;3.83;85.20
60642;BME280;46837;52.446;-1.930;2024-01-27T02:39:09;101826.27;;;3.81;85.23
60642;BME280;46837;52.446;-1.930;2024-01-27T02:40:09;101826.18;;;3.79;85.37
60642;BME280;46837;52.446;-1.930;2024-01-27T02:41:09;101818.93;;;3.80;85.42
60642;BME280;46837;52.446;-1.930;2024-01-27T02:42:09;101823.38;;;3.84;85.39
60642;BME280;46837;52.446;-1.930;2024-01-27T02:43:09;101821.73;;;3.81;85.32
60642;BME280;46837;52.446;-1.930;2024-01-27T02:44:09;101817.89;;;3.82;85.49
60642;BME280;46837;52.446;-1.930;2024-01-27T02:45:09;101820.86;;;3.83;85.48
60642;BME280;46837;52.446;-1.930;2024-01-27T02:46:10;101817.89;;;3.87;85.55
60642;BME280;46837;52.446;-1.930;2024-01-27T02:47:09;101820.50;;;3.90;85.35
60642;BME280;46837;52.446;-1.930;2024-01-27T02:48:09;101814.98;;;3.89;85.42
60642;BME280;46837;52.446;-1.930;2024-01-27T02:49:09;101809.85;;;3.92;85.58
60642;BME280;46837;52.446;-1.930;2024-01-27T02:50:09;101809.75;;;3.97;85.49
60642;BME280;46837;52.446;-1.930;2024-01-27T02:51:09;101812.05;;;4.01;85.39
60642;BME280;46837;52.446;-1.930;2024-01-27T02:52:09;101810.62;;;4.04;85.35
60642;BME280;46837;52.446;-1.930;2024-01-27T02:53:09;101803.79;;;4.08;85.24
60642;BME280;46837;52.446;-1.930;2024-01-27T02:54:09;101802.59;;;4.11;85.14
60642;BME280;46837;52.446;-1.930;2024-01-27T02:55:09;101799.44;;;4.15;85.10
60642;BME280;46837;52.446;-1.930;2024-01-27T02:56:09;101799.81;;;4.15;84.97
60642;BME280;46837;52.446;-1.930;2024-01-27T02:57:09;101791.91;;;4.17;84.98
60642;BME280;46837;52.446;-1.930;2024-01-27T02:58:09;101791.04;;;4.22;84.95
60642;BME280;46837;52.446;-1.930;2024-01-27T02:59:09;101791.21;;;4.22;84.89
60642;BME280;46837;52.446;-1.930;2024-01-27T03:00:09;101797.90;;;4.29;84.92
60642;BME280;46837;52.446;-1.930;2024-01-27T03:01:09;101801.25;;;4.33;84.66
60642;BME280;46837;52.446;-1.930;2024-01-27T03:02:09;101797.76;;;4.33;84.48
60642;BME280;46837;52.446;-1.930;2024-01-27T03:03:09;101800.41;;;4.36;84.40
60642;BME280;46837;52.446;-1.930;2024-01-27T03:04:09;101810.60;;;4.36;84.30
60642;BME280;46837;52.446;-1.930;2024-01-27T03:05:09;101810.77;;;4.37;84.28
60642;BME280;46837;52.446;-1.930;2024-01-27T03:06:09;101808.15;;;4.33;84.17
60642;BME280;46837;52.446;-1.930;2024-01-27T03:07:09;101809.81;;;4.33;84.22
60642;BME280;46837;52.446;-1.930;2024-01-27T03:08:09;101812.93;;;4.30;84.18
60642;BME280;46837;52.446;-1.930;2024-01-27T03:09:09;101812.73;;;4.24;84.22
60642;BME280;46837;52.446;-1.930;2024-01-27T03:10:09;101816.27;;;4.18;84.69
60642;BME280;46837;52.446;-1.930;2024-01-27T03:11:09;101819.33;;;4.15;84.71
60642;BME280;46837;52.446;-1.930;2024-01-27T03:12:09;101819.79;;;4.17;84.88
60642;BME280;46837;52.446;-1.930;2024-01-27T03:13:09;101821.72;;;4.15;84.67
60642;BME280;46837;52.446;-1.930;2024-01-27T03:14:09;101826.84;;;4.16;84.86
60642;BME280;46837;52.446;-1.930;2024-01-27T03:15:09;101822.85;;;4.13;84.98
60642;BME280;46837;52.446;-1.930;2024-01-27T03:16:09;101824.39;;;4.14;84.92
60642;BME280;46837;52.446;-1.930;2024-01-27T03:17:09;101826.43;;;4.14;84.99
60642;BME280;46837;52.446;-1.930;2024-01-27T03:18:09;101819.89;;;4.13;84.98
60642;BME280;46837;52.446;-1.930;2024-01-27T03:19:09;101817.17;;;4.14;85.20
60642;BME280;46837;52.446;-1.930;2024-01-27T03:20:09;101817.77;;;4.19;85.16
60642;BME280;46837;52.446;-1.930;2024-01-27T03:21:09;101817.03;;;4.23;85.04
60642;BME280;46837;52.446;-1.930;2024-01-27T03:22:09;101811.84;;;4.24;84.85
60642;BME280;46837;52.446;-1.930;2024-01-27T03:23:09;101804.74;;;4.25;84.91
60642;BME280;46837;52.446;-1.930;2024-01-27T03:24:09;101808.11;;;4.26;85.04
60642;BME280;46837;52.446;-1.930;2024-01-27T03:25:09;101805.73;;;4.30;84.97
60642;BME280;46837;52.446;-1.930;2024-01-27T03:26:09;101807.00;;;4.30;84.92
60642;BME280;46837;52.446;-1.930;2024-01-27T03:27:09;101804.09;;;4.33;84.88
60642;BME280;46837;52.446;-1.930;2024-01-27T03:28:09;101801.36;;;4.39;84.86
60642;BME280;46837;52.446;-1.930;2024-01-27T03:29:09;101797.30;;;4.39;84.68
60642;BME280;46837;52.446;-1.930;2024-01-27T03:30:09;101795.40;;;4.33;84.80
60642;BME280;46837;52.446;-1.930;2024-01-27T03:31:09;101800.24;;;4.34;85.05
60642;BME280;46837;52.446;-1.930;2024-01-27T03:32:09;101803.88;;;4.33;84.96
60642;BME280;46837;52.446;-1.930;2024-01-27T03:33:09;101808.95;;;4.39;85.04
60642;BME280;46837;52.446;-1.930;2024-01-27T03:34:09;101811.82;;;4.44;84.81
60642;BME280;46837;52.446;-1.930;2024-01-27T03:35:09;101810.43;;;4.43;84.66
60642;BME280;46837;52.446;-1.930;2024-01-27T03:36:14;101810.69;;;4.46;84.67
60642;BME280;46837;52.446;-1.930;2024-01-27T03:37:09;101810.97;;;4.45;84.48
60642;BME280;46837;52.446;-1.930;2024-01-27T03:38:09;101815.44;;;4.46;84.63
60642;BME280;46837;52.446;-1.930;2024-01-27T03:39:09;101818.17;;;4.48;84.67
60642;BME280;46837;52.446;-1.930;2024-01-27T03:40:09;101814.44;;;4.50;84.55
60642;BME280;46837;52.446;-1.930;2024-01-27T03:41:09;101813.84;;;4.50;84.54
60642;BME280;46837;52.446;-1.930;2024-01-27T03:42:09;101808.70;;;4.53;84.60
60642;BME280;46837;52.446;-1.930;2024-01-27T03:43:09;101811.31;;;4.58;84.43
60642;BME280;46837;52.446;-1.930;2024-01-27T03:44:09;101811.13;;;4.53;84.34
60642;BME280;46837;52.446;-1.930;2024-01-27T03:45:09;101810.36;;;4.52;84.42
60642;BME280;46837;52.446;-1.930;2024-01-27T03:46:09;101812.64;;;4.54;84.58
60642;BME280;46837;52.446;-1.930;2024-01-27T03:47:09;101815.28;;;4.56;84.45
60642;BME280;46837;52.446;-1.930;2024-01-27T03:48:09;101810.32;;;4.52;84.46
60642;BME280;46837;52.446;-1.930;2024-01-27T03:49:09;101810.74;;;4.57;84.53
60642;BME280;46837;52.446;-1.930;2024-01-27T03:50:09;101810.95;;;4.59;84.31
60642;BME280;46837;52.446;-1.930;2024-01-27T03:51:09;101808.38;;;4.55;84.13
60642;BME280;46837;52.446;-1.930;2024-01-27T03:52:09;101808.88;;;4.58;84.36
60642;BME280;46837;52.446;-1.930;2024-01-27T03:53:09;101808.49;;;4.54;84.34
60642;BME280;46837;52.446;-1.930;2024-01-27T03:54:09;101812.47;;;4.53;84.51
60642;BME280;46837;52.446;-1.930;2024-01-27T03:55:09;101808.82;;;4.52;84.48
60642;BME280;46837;52.446;-1.930;2024-01-27T03:56:10;101805.08;;;4.54;84.50
60642;BME280;46837;52.446;-1.930;2024-01-27T03:57:09;101805.68;;;4.51;84.54
60642;BME280;46837;52.446;-1.930;2024-01-27T03:58:09;101806.82;;;4.52;84.57
60642;BME280;46837;52.446;-1.930;2024-01-27T03:59:09;101809.77;;;4.49;84.62
60642;BME280;46837;52.446;-1.930;2024-01-27T04:00:09;101807.43;;;4.53;84.76
60642;BME280;46837;52.446;-1.930;2024-01-27T04:01:09;101808.50;;;4.56;84.60
60642;BME280;46837;52.446;-1.930;2024-01-27T04:02:09;101811.18;;;4.55;84.60
60642;BME280;46837;52.446;-1.930;2024-01-27T04:03:09;101807.27;;;4.54;84.52
60642;BME280;46837;52.446;-1.930;2024-01-27T04:04:09;101802.86;;;4.58;84.53
60642;BME280;46837;52.446;-1.930;2024-01-27T04:05:09;101797.52;;;4.61;84.42
60642;BME280;46837;52.446;-1.930;2024-01-27T04:06:09;101799.64;;;4.63;84.41
60642;BME280;46837;52.446;-1.930;2024-01-27T04:07:09;101797.95;;;4.66;84.28
60642;BME280;46837;52.446;-1.930;2024-01-27T04:08:09;101794.16;;;4.65;84.13
60642;BME280;46837;52.446;-1.930;2024-01-27T04:09:09;101788.40;;;4.67;84.18
60642;BME280;46837;52.446;-1.930;2024-01-27T04:10:09;101785.72;;;4.66;84.07
60642;BME280;46837;52.446;-1.930;2024-01-27T04:11:09;101786.69;;;4.64;84.20
60642;BME280;46837;52.446;-1.930;2024-01-27T04:12:09;101790.72;;;4.66;84.26
60642;BME280;46837;52.446;-1.930;2024-01-27T04:13:09;101786.25;;;4.67;84.18
60642;BME280;46837;52.446;-1.930;2024-01-27T04:14:09;101787.79;;;4.68;84.15
60642;BME280;46837;52.446;-1.930;2024-01-27T04:15:09;101792.03;;;4.70;84.14
60642;BME280;46837;52.446;-1.930;2024-01-27T04:16:09;101783.42;;;4.69;84.06
60642;BME280;46837;52.446;-1.930;2024-01-27T04:17:09;101780.10;;;4.73;84.02
60642;BME280;46837;52.446;-1.930;2024-01-27T04:18:09;101773.11;;;4.73;83.86
60642;BME280;46837;52.446;-1.930;2024-01-27T04:19:09;101769.24;;;4.70;83.97
60642;BME280;46837;52.446;-1.930;2024-01-27T04:20:09;101767.29;;;4.69;83.98
60642;BME280;46837;52.446;-1.930;2024-01-27T04:21:09;101766.75;;;4.66;84.07
60642;BME280;46837;52.446;-1.930;2024-01-27T04:22:09;101767.97;;;4.65;84.05
60642;BME280;46837;52.446;-1.930;2024-01-27T04:23:09;101767.08;;;4.65;84.19
60642;BME280;46837;52.446;-1.930;2024-01-27T04:24:09;101763.17;;;4.64;84.12
60642;BME280;46837;52.446;-1.930;2024-01-27T04:25:09;101760.75;;;4.67;84.24
60642;BME280;46837;52.446;-1.930;2024-01-27T04:26:09;101761.12;;;4.69;84.04
60642;BME280;46837;52.446;-1.930;2024-01-27T04:27:09;101760.68;;;4.72;83.87
60642;BME280;46837;52.446;-1.930;2024-01-27T04:28:09;101761.79;;;4.75;83.84
60642;BME280;46837;52.446;-1.930;2024-01-27T04:29:09;101760.70;;;4.76;83.63
60642;BME280;46837;52.446;-1.930;2024-01-27T04:30:10;101761.99;;;4.78;83.53
60642;BME280;46837;52.446;-1.930;2024-01-27T04:31:09;101764.52;;;4.77;83.40
60642;BME280;46837;52.446;-1.930;2024-01-27T04:32:09;101771.87;;;4.79;83.57
60642;BME280;46837;52.446;-1.930;2024-01-27T04:33:11;101774.80;;;4.80;83.41
60642;BME280;46837;52.446;-1.930;2024-01-27T04:34:09;101774.63;;;4.77;83.39
60642;BME280;46837;52.446;-1.930;2024-01-27T04:35:11;101776.20;;;4.75;83.54
60642;BME280;46837;52.446;-1.930;2024-01-27T04:36:09;101772.88;;;4.78;83.55
60642;BME280;46837;52.446;-1.930;2024-01-27T04:37:09;101768.70;;;4.77;83.45
60642;BME280;46837;52.446;-1.930;2024-01-27T04:38:10;101762.56;;;4.75;83.44
60642;BME280;46837;52.446;-1.930;2024-01-27T04:39:09;101759.11;;;4.75;83.54
60642;BME280;46837;52.446;-1.930;2024-01-27T04:40:09;101749.73;;;4.77;83.42
60642;BME280;46837;52.446;-1.930;2024-01-27T04:41:09;101745.67;;;4.79;83.34
60642;BME280;46837;52.446;-1.930;2024-01-27T04:42:09;101751.32;;;4.82;83.25
60642;BME280;46837;52.446;-1.930;2024-01-27T04:43:09;101748.68;;;4.81;83.08
60642;BME280;46837;52.446;-1.930;2024-01-27T04:44:09;101749.58;;;4.83;83.06
60642;BME280;46837;52.446;-1.930;2024-01-27T04:45:09;101757.75;;;4.83;83.00
60642;BME280;46837;52.446;-1.930;2024-01-27T04:46:09;101756.93;;;4.82;82.90
60642;BME280;46837;52.446;-1.930;2024-01-27T04:47:09;101755.45;;;4.76;82.82
60642;BME280;46837;52.446;-1.930;2024-01-27T04:48:09;101755.62;;;4.77;83.06
60642;BME280;46837;52.446;-1.930;2024-01-27T04:49:09;101754.23;;;4.73;82.96
60642;BME280;46837;52.446;-1.930;2024-01-27T04:50:09;101761.05;;;4.73;83.02
60642;BME280;46837;52.446;-1.930;2024-01-27T04:51:09;101759.09;;;4.71;82.98
60642;BME280;46837;52.446;-1.930;2024-01-27T04:52:09;101763.19;;;4.68;82.94
60642;BME280;46837;52.446;-1.930;2024-01-27T04:53:09;101764.76;;;4.63;83.20
60642;BME280;46837;52.446;-1.930;2024-01-27T04:54:09;101762.57;;;4.65;83.39
60642;BME280;46837;52.446;-1.930;2024-01-27T04:55:09;101766.88;;;4.68;83.29
60642;BME280;46837;52.446;-1.930;2024-01-27T04:56:10;101763.76;;;4.70;83.15
60642;BME280;46837;52.446;-1.930;2024-01-27T04:57:09;101757.58;;;4.66;82.85
60642;BME280;46837;52.446;-1.930;2024-01-27T04:58:09;101760.50;;;4.66;82.91
60642;BME280;46837;52.446;-1.930;2024-01-27T04:59:09;101754.16;;;4.62;82.80
60642;BME280;46837;52.446;-1.930;2024-01-27T05:00:10;101756.96;;;4.53;82.85
60642;BME280;46837;52.446;-1.930;2024-01-27T05:01:09;101750.89;;;4.48;83.10
60642;BME280;46837;52.446;-1.930;2024-01-27T05:02:09;101749.46;;;4.43;83.34
60642;BME280;46837;52.446;-1.930;2024-01-27T05:03:10;101748.97;;;4.43;83.45
60642;BME280;46837;52.446;-1.930;2024-01-27T05:04:09;101752.50;;;4.41;83.36
60642;BME280;46837;52.446;-1.930;2024-01-27T05:05:09;101756.78;;;4.36;83.39
60642;BME280;46837;52.446;-1.930;2024-01-27T05:06:10;101746.50;;;4.35;83.44
60642;BME280;46837;52.446;-1.930;2024-01-27T05:07:09;101745.31;;;4.32;83.35
60642;BME280;46837;52.446;-1.930;2024-01-27T05:08:09;101745.10;;;4.29;83.50
60642;BME280;46837;52.446;-1.930;2024-01-27T05:09:11;101745.22;;;4.29;83.48
60642;BME280;46837;52.446;-1.930;2024-01-27T05:10:11;101747.47;;;4.25;83.56
60642;BME280;46837;52.446;-1.930;2024-01-27T05:11:09;101748.77;;;4.24;83.63
60642;BME280;46837;52.446;-1.930;2024-01-27T05:12:09;101750.16;;;4.18;83.75
60642;BME280;46837;52.446;-1.930;2024-01-27T05:13:09;101748.46;;;4.18;83.93
60642;BME280;46837;52.446;-1.930;2024-01-27T05:14:09;101743.89;;;4.14;83.97